sensor_id;sensor_type;location;lat;lon;timestamp;P1;durP1;ratioP1;P2;durP2;ratioP2
41946;SDS011;27638;42.184;24.848;2023-05-10T00:01:27;10.57;;;5.90;;
41946;SDS011;27638;42.184;24.848;2023-05-10T00:03:52;9.98;;;6.65;;
41946;SDS011;27638;42.184;24.848;2023-05-10T00:06:18;10.95;;;7.47;;
41946;SDS011;27638;42.184;24.848;2023-05-10T00:08:44;9.50;;;6.43;;
41946;SDS011;27638;42.184;24.848;2023-05-10T00:11:10;12.05;;;7.93;;
41946;SDS011;27638;42.184;24.848;2023-05-10T00:13:35;11.65;;;7.18;;
41946;SDS011;27638;42.184;24.848;2023-05-10T00:16:01;15.40;;;7.65;;
41946;SDS011;27638;42.184;24.848;2023-05-10T00:18:26;12.70;;;6.82;;
41946;SDS011;27638;42.184;24.848;2023-05-10T00:20:52;10.38;;;7.00;;
41946;SDS011;27638;42.184;24.848;2023-05-10T00:23:17;9.73;;;6.53;;
41946;SDS011;27638;42.184;24.848;2023-05-10T00:25:43;7.72;;;5.68;;
41946;SDS011;27638;42.184;24.848;2023-05-10T00:28:08;8.05;;;4.60;;
41946;SDS011;27638;42.184;24.848;2023-05-10T00:30:34;10.93;;;5.63;;
41946;SDS011;27638;42.184;24.848;2023-05-10T00:32:59;7.15;;;5.38;;
41946;SDS011;27638;42.184;24.848;2023-05-10T00:35:25;7.40;;;4.47;;
41946;SDS011;27638;42.184;24.848;2023-05-10T00:37:51;10.57;;;4.95;;
41946;SDS011;27638;42.184;24.848;2023-05-10T00:40:16;10.30;;;5.10;;
41946;SDS011;27638;42.184;24.848;2023-05-10T00:42:42;10.80;;;5.60;;
41946;SDS011;27638;42.184;24.848;2023-05-10T00:45:07;7.18;;;5.05;;
41946;SDS011;27638;42.184;24.848;2023-05-10T00:47:33;7.25;;;4.60;;
41946;SDS011;27638;42.184;24.848;2023-05-10T00:49:59;9.93;;;5.85;;
41946;SDS011;27638;42.184;24.848;2023-05-10T00:52:26;9.88;;;5.70;;
41946;SDS011;27638;42.184;24.848;2023-05-10T00:54:55;7.00;;;6.18;;
41946;SDS011;27638;42.184;24.848;2023-05-10T00:57:21;13.23;;;7.03;;
41946;SDS011;27638;42.184;24.848;2023-05-10T00:59:46;12.43;;;6.28;;
41946;SDS011;27638;42.184;24.848;2023-05-10T01:02:13;14.18;;;7.05;;
41946;SDS011;27638;42.184;24.848;2023-05-10T01:04:39;10.77;;;7.07;;
41946;SDS011;27638;42.184;24.848;2023-05-10T01:07:05;11.35;;;6.72;;
41946;SDS011;27638;42.184;24.848;2023-05-10T01:09:31;11.40;;;6.93;;
41946;SDS011;27638;42.184;24.848;2023-05-10T01:11:57;12.32;;;7.53;;
41946;SDS011;27638;42.184;24.848;2023-05-10T01:14:24;10.10;;;6.55;;
41946;SDS011;27638;42.184;24.848;2023-05-10T01:16:50;13.00;;;7.35;;
41946;SDS011;27638;42.184;24.848;2023-05-10T01:19:28;12.90;;;6.97;;
41946;SDS011;27638;42.184;24.848;2023-05-10T01:22:05;9.93;;;5.70;;
41946;SDS011;27638;42.184;24.848;2023-05-10T01:33:27;11.90;;;6.80;;
41946;SDS011;27638;42.184;24.848;2023-05-10T01:36:05;9.05;;;5.18;;
41946;SDS011;27638;42.184;24.848;2023-05-10T01:38:50;11.15;;;5.82;;
41946;SDS011;27638;42.184;24.848;2023-05-10T01:41:31;10.10;;;6.03;;
41946;SDS011;27638;42.184;24.848;2023-05-10T01:44:10;8.73;;;5.82;;
41946;SDS011;27638;42.184;24.848;2023-05-10T01:46:37;11.18;;;5.97;;
41946;SDS011;27638;42.184;24.848;2023-05-10T01:49:08;12.30;;;6.15;;
41946;SDS011;27638;42.184;24.848;2023-05-10T01:51:40;9.68;;;6.68;;
41946;SDS011;27638;42.184;24.848;2023-05-10T01:54:09;12.23;;;6.53;;
41946;SDS011;27638;42.184;24.848;2023-05-10T01:56:38;9.32;;;5.57;;
41946;SDS011;27638;42.184;24.848;2023-05-10T01:59:11;9.32;;;5.75;;
41946;SDS011;27638;42.184;24.848;2023-05-10T02:01:40;10.43;;;5.82;;
41946;SDS011;27638;42.184;24.848;2023-05-10T02:04:07;12.05;;;6.68;;
41946;SDS011;27638;42.184;24.848;2023-05-10T02:06:34;9.27;;;5.75;;
41946;SDS011;27638;42.184;24.848;2023-05-10T02:09:01;10.60;;;6.75;;
41946;SDS011;27638;42.184;24.848;2023-05-10T02:11:28;8.75;;;5.90;;
41946;SDS011;27638;42.184;24.848;2023-05-10T02:13:55;8.65;;;5.90;;
41946;SDS011;27638;42.184;24.848;2023-05-10T02:16:23;9.60;;;5.82;;
41946;SDS011;27638;42.184;24.848;2023-05-10T02:18:51;13.43;;;6.80;;
41946;SDS011;27638;42.184;24.848;2023-05-10T02:21:17;11.63;;;6.20;;
41946;SDS011;27638;42.184;24.848;2023-05-10T02:23:45;10.10;;;6.03;;
41946;SDS011;27638;42.184;24.848;2023-05-10T02:26:13;12.02;;;6.70;;
41946;SDS011;27638;42.184;24.848;2023-05-10T02:28:40;8.60;;;6.25;;
41946;SDS011;27638;42.184;24.848;2023-05-10T02:31:08;10.35;;;6.35;;
41946;SDS011;27638;42.184;24.848;2023-05-10T02:33:35;10.27;;;6.22;;
41946;SDS011;27638;42.184;24.848;2023-05-10T02:36:03;9.13;;;6.18;;
41946;SDS011;27638;42.184;24.848;2023-05-10T02:38:30;12.65;;;6.88;;
41946;SDS011;27638;42.184;24.848;2023-05-10T02:40:58;13.75;;;6.55;;
41946;SDS011;27638;42.184;24.848;2023-05-10T02:43:24;17.00;;;7.20;;
41946;SDS011;27638;42.184;24.848;2023-05-10T02:45:51;11.10;;;6.75;;
41946;SDS011;27638;42.184;24.848;2023-05-10T02:48:16;9.07;;;6.38;;
41946;SDS011;27638;42.184;24.848;2023-05-10T02:50:43;11.45;;;7.15;;
41946;SDS011;27638;42.184;24.848;2023-05-10T02:53:10;12.80;;;7.20;;
41946;SDS011;27638;42.184;24.848;2023-05-10T02:55:40;13.07;;;7.68;;
41946;SDS011;27638;42.184;24.848;2023-05-10T02:58:10;10.40;;;6.78;;
41946;SDS011;27638;42.184;24.848;2023-05-10T03:00:36;13.15;;;7.32;;
41946;SDS011;27638;42.184;24.848;2023-05-10T03:03:01;10.18;;;6.72;;
41946;SDS011;27638;42.184;24.848;2023-05-10T03:05:27;11.95;;;7.70;;
41946;SDS011;27638;42.184;24.848;2023-05-10T03:07:52;11.68;;;6.80;;
41946;SDS011;27638;42.184;24.848;2023-05-10T03:10:19;14.57;;;7.57;;
41946;SDS011;27638;42.184;24.848;2023-05-10T03:18:23;11.40;;;7.00;;
41946;SDS011;27638;42.184;24.848;2023-05-10T03:20:57;13.75;;;7.07;;
41946;SDS011;27638;42.184;24.848;2023-05-10T03:26:00;12.77;;;8.32;;
41946;SDS011;27638;42.184;24.848;2023-05-10T03:28:26;12.13;;;7.28;;
41946;SDS011;27638;42.184;24.848;2023-05-10T03:30:53;12.85;;;7.82;;
41946;SDS011;27638;42.184;24.848;2023-05-10T03:33:19;10.30;;;7.18;;
41946;SDS011;27638;42.184;24.848;2023-05-10T03:35:45;12.80;;;6.72;;
41946;SDS011;27638;42.184;24.848;2023-05-10T03:38:11;11.90;;;7.57;;
41946;SDS011;27638;42.184;24.848;2023-05-10T03:40:39;10.70;;;7.05;;
41946;SDS011;27638;42.184;24.848;2023-05-10T03:43:05;10.10;;;5.63;;
41946;SDS011;27638;42.184;24.848;2023-05-10T03:45:31;11.15;;;6.45;;
41946;SDS011;27638;42.184;24.848;2023-05-10T03:47:57;12.02;;;7.38;;
41946;SDS011;27638;42.184;24.848;2023-05-10T03:50:23;12.13;;;6.80;;
41946;SDS011;27638;42.184;24.848;2023-05-10T03:52:48;9.98;;;6.93;;
41946;SDS011;27638;42.184;24.848;2023-05-10T03:55:14;10.52;;;7.53;;
41946;SDS011;27638;42.184;24.848;2023-05-10T03:57:39;13.07;;;8.18;;
41946;SDS011;27638;42.184;24.848;2023-05-10T04:00:05;14.98;;;6.53;;
41946;SDS011;27638;42.184;24.848;2023-05-10T04:02:31;11.52;;;7.60;;
41946;SDS011;27638;42.184;24.848;2023-05-10T04:04:56;11.57;;;7.22;;
41946;SDS011;27638;42.184;24.848;2023-05-10T04:07:22;15.00;;;7.28;;
41946;SDS011;27638;42.184;24.848;2023-05-10T04:09:48;12.05;;;7.60;;
41946;SDS011;27638;42.184;24.848;2023-05-10T04:12:13;13.50;;;7.05;;
41946;SDS011;27638;42.184;24.848;2023-05-10T04:14:38;10.80;;;6.93;;
41946;SDS011;27638;42.184;24.848;2023-05-10T04:17:04;14.02;;;7.35;;
41946;SDS011;27638;42.184;24.848;2023-05-10T04:19:30;13.02;;;7.95;;
41946;SDS011;27638;42.184;24.848;2023-05-10T04:21:56;10.85;;;6.88;;
41946;SDS011;27638;42.184;24.848;2023-05-10T04:24:22;11.52;;;6.47;;
41946;SDS011;27638;42.184;24.848;2023-05-10T04:26:47;10.90;;;6.53;;
41946;SDS011;27638;42.184;24.848;2023-05-10T04:29:12;10.63;;;6.45;;
41946;SDS011;27638;42.184;24.848;2023-05-10T04:31:38;11.45;;;6.72;;
41946;SDS011;27638;42.184;24.848;2023-05-10T04:34:03;12.05;;;6.55;;
41946;SDS011;27638;42.184;24.848;2023-05-10T04:36:29;8.50;;;5.53;;
41946;SDS011;27638;42.184;24.848;2023-05-10T04:38:54;9.45;;;6.13;;
41946;SDS011;27638;42.184;24.848;2023-05-10T04:41:20;10.40;;;6.20;;
41946;SDS011;27638;42.184;24.848;2023-05-10T04:43:45;11.82;;;6.00;;
41946;SDS011;27638;42.184;24.848;2023-05-10T04:46:11;10.35;;;5.85;;
41946;SDS011;27638;42.184;24.848;2023-05-10T04:48:37;7.68;;;5.50;;
41946;SDS011;27638;42.184;24.848;2023-05-10T04:51:02;12.20;;;6.45;;
41946;SDS011;27638;42.184;24.848;2023-05-10T04:53:29;13.35;;;6.68;;
41946;SDS011;27638;42.184;24.848;2023-05-10T04:55:54;12.63;;;5.63;;
41946;SDS011;27638;42.184;24.848;2023-05-10T04:58:20;10.95;;;5.97;;
41946;SDS011;27638;42.184;24.848;2023-05-10T05:00:45;10.93;;;6.15;;
41946;SDS011;27638;42.184;24.848;2023-05-10T05:03:11;8.55;;;5.47;;
41946;SDS011;27638;42.184;24.848;2023-05-10T05:05:36;11.02;;;5.53;;
41946;SDS011;27638;42.184;24.848;2023-05-10T05:08:02;8.93;;;5.85;;
41946;SDS011;27638;42.184;24.848;2023-05-10T05:10:28;9.02;;;5.70;;
41946;SDS011;27638;42.184;24.848;2023-05-10T05:12:53;11.27;;;5.10;;
41946;SDS011;27638;42.184;24.848;2023-05-10T05:15:18;9.60;;;4.85;;
41946;SDS011;27638;42.184;24.848;2023-05-10T05:17:44;7.90;;;5.55;;
41946;SDS011;27638;42.184;24.848;2023-05-10T05:20:10;10.18;;;5.78;;
41946;SDS011;27638;42.184;24.848;2023-05-10T05:22:36;8.23;;;6.15;;
41946;SDS011;27638;42.184;24.848;2023-05-10T05:25:02;9.13;;;5.30;;
41946;SDS011;27638;42.184;24.848;2023-05-10T05:27:28;8.98;;;5.22;;
41946;SDS011;27638;42.184;24.848;2023-05-10T05:29:54;10.27;;;6.50;;
41946;SDS011;27638;42.184;24.848;2023-05-10T05:32:20;12.45;;;6.75;;
41946;SDS011;27638;42.184;24.848;2023-05-10T05:34:46;13.70;;;8.07;;
41946;SDS011;27638;42.184;24.848;2023-05-10T05:37:13;17.80;;;7.60;;
41946;SDS011;27638;42.184;24.848;2023-05-10T05:39:45;13.70;;;7.70;;
41946;SDS011;27638;42.184;24.848;2023-05-10T05:42:12;12.23;;;8.02;;
41946;SDS011;27638;42.184;24.848;2023-05-10T05:44:38;11.60;;;6.55;;
41946;SDS011;27638;42.184;24.848;2023-05-10T05:47:04;9.35;;;6.15;;
41946;SDS011;27638;42.184;24.848;2023-05-10T05:49:29;11.20;;;7.07;;
41946;SDS011;27638;42.184;24.848;2023-05-10T05:51:58;13.00;;;6.57;;
41946;SDS011;27638;42.184;24.848;2023-05-10T05:54:28;11.27;;;6.38;;
41946;SDS011;27638;42.184;24.848;2023-05-10T05:56:54;15.85;;;7.05;;
41946;SDS011;27638;42.184;24.848;2023-05-10T05:59:20;7.68;;;4.72;;
41946;SDS011;27638;42.184;24.848;2023-05-10T06:01:46;8.10;;;5.45;;
41946;SDS011;27638;42.184;24.848;2023-05-10T06:04:12;8.07;;;5.65;;
41946;SDS011;27638;42.184;24.848;2023-05-10T06:06:37;8.80;;;6.13;;
41946;SDS011;27638;42.184;24.848;2023-05-10T06:09:03;10.02;;;6.18;;
41946;SDS011;27638;42.184;24.848;2023-05-10T06:11:28;6.97;;;5.72;;
41946;SDS011;27638;42.184;24.848;2023-05-10T06:13:54;6.97;;;4.80;;
41946;SDS011;27638;42.184;24.848;2023-05-10T06:16:19;8.27;;;5.88;;
41946;SDS011;27638;42.184;24.848;2023-05-10T06:18:44;10.52;;;6.20;;
41946;SDS011;27638;42.184;24.848;2023-05-10T06:21:10;8.20;;;6.00;;
41946;SDS011;27638;42.184;24.848;2023-05-10T06:23:35;8.63;;;6.38;;
41946;SDS011;27638;42.184;24.848;2023-05-10T06:26:01;8.82;;;6.82;;
41946;SDS011;27638;42.184;24.848;2023-05-10T06:28:26;9.20;;;5.97;;
41946;SDS011;27638;42.184;24.848;2023-05-10T06:30:52;8.27;;;5.20;;
41946;SDS011;27638;42.184;24.848;2023-05-10T06:33:17;7.38;;;4.80;;
41946;SDS011;27638;42.184;24.848;2023-05-10T06:35:43;13.50;;;6.38;;
41946;SDS011;27638;42.184;24.848;2023-05-10T06:38:08;6.57;;;5.10;;
41946;SDS011;27638;42.184;24.848;2023-05-10T06:40:34;8.70;;;5.30;;
41946;SDS011;27638;42.184;24.848;2023-05-10T06:42:59;8.63;;;5.13;;
41946;SDS011;27638;42.184;24.848;2023-05-10T06:45:25;9.25;;;6.03;;
41946;SDS011;27638;42.184;24.848;2023-05-10T06:47:50;5.50;;;4.22;;
41946;SDS011;27638;42.184;24.848;2023-05-10T06:50:16;10.43;;;4.93;;
41946;SDS011;27638;42.184;24.848;2023-05-10T06:52:41;7.90;;;3.95;;
41946;SDS011;27638;42.184;24.848;2023-05-10T06:55:07;7.78;;;5.60;;
41946;SDS011;27638;42.184;24.848;2023-05-10T06:57:33;7.18;;;4.53;;
41946;SDS011;27638;42.184;24.848;2023-05-10T06:59:59;7.30;;;4.85;;
41946;SDS011;27638;42.184;24.848;2023-05-10T07:02:25;7.72;;;5.07;;
41946;SDS011;27638;42.184;24.848;2023-05-10T07:04:50;6.95;;;5.03;;
41946;SDS011;27638;42.184;24.848;2023-05-10T07:07:16;7.70;;;5.40;;
41946;SDS011;27638;42.184;24.848;2023-05-10T07:09:42;6.65;;;4.35;;
41946;SDS011;27638;42.184;24.848;2023-05-10T07:12:07;6.57;;;4.45;;
41946;SDS011;27638;42.184;24.848;2023-05-10T07:14:33;7.32;;;3.30;;
41946;SDS011;27638;42.184;24.848;2023-05-10T07:16:58;7.40;;;4.32;;
41946;SDS011;27638;42.184;24.848;2023-05-10T07:19:24;6.00;;;3.42;;
41946;SDS011;27638;42.184;24.848;2023-05-10T07:21:49;7.22;;;3.95;;
41946;SDS011;27638;42.184;24.848;2023-05-10T07:24:15;6.05;;;4.05;;
41946;SDS011;27638;42.184;24.848;2023-05-10T07:26:41;7.38;;;4.07;;
41946;SDS011;27638;42.184;24.848;2023-05-10T07:29:06;6.88;;;4.97;;
41946;SDS011;27638;42.184;24.848;2023-05-10T07:31:32;7.20;;;5.38;;
41946;SDS011;27638;42.184;24.848;2023-05-10T07:33:57;5.95;;;4.43;;
41946;SDS011;27638;42.184;24.848;2023-05-10T07:36:22;7.68;;;4.47;;
41946;SDS011;27638;42.184;24.848;2023-05-10T07:38:48;6.43;;;4.10;;
41946;SDS011;27638;42.184;24.848;2023-05-10T07:41:14;9.38;;;3.95;;
41946;SDS011;27638;42.184;24.848;2023-05-10T07:43:39;7.75;;;4.00;;
41946;SDS011;27638;42.184;24.848;2023-05-10T07:46:05;6.90;;;4.80;;
41946;SDS011;27638;42.184;24.848;2023-05-10T07:48:31;5.78;;;4.10;;
41946;SDS011;27638;42.184;24.848;2023-05-10T07:50:56;5.55;;;3.60;;
41946;SDS011;27638;42.184;24.848;2023-05-10T07:53:21;4.78;;;3.08;;
41946;SDS011;27638;42.184;24.848;2023-05-10T07:55:51;4.40;;;3.17;;
41946;SDS011;27638;42.184;24.848;2023-05-10T07:58:19;4.43;;;3.40;;
41946;SDS011;27638;42.184;24.848;2023-05-10T08:00:45;5.13;;;3.65;;
41946;SDS011;27638;42.184;24.848;2023-05-10T08:03:10;4.60;;;3.85;;
41946;SDS011;27638;42.184;24.848;2023-05-10T08:05:35;8.32;;;4.28;;
41946;SDS011;27638;42.184;24.848;2023-05-10T08:08:01;7.85;;;4.63;;
41946;SDS011;27638;42.184;24.848;2023-05-10T08:10:26;5.63;;;3.85;;
41946;SDS011;27638;42.184;24.848;2023-05-10T08:12:52;6.40;;;4.00;;
41946;SDS011;27638;42.184;24.848;2023-05-10T08:15:17;5.18;;;3.08;;
41946;SDS011;27638;42.184;24.848;2023-05-10T08:17:43;7.90;;;3.67;;
41946;SDS011;27638;42.184;24.848;2023-05-10T08:20:08;7.68;;;4.50;;
41946;SDS011;27638;42.184;24.848;2023-05-10T08:22:34;6.40;;;3.60;;
41946;SDS011;27638;42.184;24.848;2023-05-10T08:24:59;5.45;;;4.07;;
41946;SDS011;27638;42.184;24.848;2023-05-10T08:27:25;7.03;;;3.78;;
41946;SDS011;27638;42.184;24.848;2023-05-10T08:29:50;6.70;;;4.20;;
41946;SDS011;27638;42.184;24.848;2023-05-10T08:32:16;5.32;;;4.05;;
41946;SDS011;27638;42.184;24.848;2023-05-10T08:34:42;6.68;;;4.20;;
41946;SDS011;27638;42.184;24.848;2023-05-10T08:37:07;4.53;;;3.90;;
41946;SDS011;27638;42.184;24.848;2023-05-10T08:39:36;5.25;;;3.72;;
41946;SDS011;27638;42.184;24.848;2023-05-10T08:42:03;6.20;;;4.07;;
41946;SDS011;27638;42.184;24.848;2023-05-10T08:44:30;3.88;;;3.17;;
41946;SDS011;27638;42.184;24.848;2023-05-10T08:46:57;4.18;;;3.58;;
41946;SDS011;27638;42.184;24.848;2023-05-10T08:49:24;4.05;;;3.58;;
41946;SDS011;27638;42.184;24.848;2023-05-10T08:51:54;5.15;;;3.28;;
41946;SDS011;27638;42.184;24.848;2023-05-10T08:54:21;5.85;;;3.78;;
41946;SDS011;27638;42.184;24.848;2023-05-10T08:56:46;7.97;;;5.07;;
41946;SDS011;27638;42.184;24.848;2023-05-10T08:59:12;3.78;;;2.72;;
41946;SDS011;27638;42.184;24.848;2023-05-10T09:01:39;8.60;;;5.05;;
41946;SDS011;27638;42.184;24.848;2023-05-10T09:04:07;5.38;;;3.72;;
41946;SDS011;27638;42.184;24.848;2023-05-10T09:06:32;7.13;;;5.50;;
41946;SDS011;27638;42.184;24.848;2023-05-10T09:08:59;5.72;;;4.28;;
41946;SDS011;27638;42.184;24.848;2023-05-10T09:11:24;7.82;;;5.50;;
41946;SDS011;27638;42.184;24.848;2023-05-10T09:13:50;8.00;;;5.30;;
41946;SDS011;27638;42.184;24.848;2023-05-10T09:16:17;4.55;;;3.60;;
41946;SDS011;27638;42.184;24.848;2023-05-10T09:18:43;6.05;;;3.80;;
41946;SDS011;27638;42.184;24.848;2023-05-10T09:21:08;6.18;;;3.28;;
41946;SDS011;27638;42.184;24.848;2023-05-10T09:23:35;5.72;;;3.78;;
41946;SDS011;27638;42.184;24.848;2023-05-10T09:26:06;6.45;;;4.63;;
41946;SDS011;27638;42.184;24.848;2023-05-10T09:28:49;7.93;;;4.75;;
41946;SDS011;27638;42.184;24.848;2023-05-10T09:31:15;7.78;;;3.95;;
41946;SDS011;27638;42.184;24.848;2023-05-10T09:33:44;8.43;;;4.72;;
41946;SDS011;27638;42.184;24.848;2023-05-10T09:36:11;7.78;;;4.60;;
41946;SDS011;27638;42.184;24.848;2023-05-10T09:38:47;5.50;;;4.15;;
41946;SDS011;27638;42.184;24.848;2023-05-10T09:41:20;8.68;;;4.00;;
41946;SDS011;27638;42.184;24.848;2023-05-10T09:43:47;7.38;;;4.05;;
41946;SDS011;27638;42.184;24.848;2023-05-10T09:46:13;6.47;;;3.70;;
41946;SDS011;27638;42.184;24.848;2023-05-10T09:48:43;9.57;;;4.00;;
41946;SDS011;27638;42.184;24.848;2023-05-10T09:51:16;5.82;;;4.07;;
41946;SDS011;27638;42.184;24.848;2023-05-10T09:53:44;6.20;;;4.20;;
41946;SDS011;27638;42.184;24.848;2023-05-10T09:56:09;6.20;;;3.80;;
41946;SDS011;27638;42.184;24.848;2023-05-10T09:58:36;5.78;;;4.10;;
41946;SDS011;27638;42.184;24.848;2023-05-10T10:01:03;5.22;;;4.63;;
41946;SDS011;27638;42.184;24.848;2023-05-10T10:03:28;6.03;;;4.40;;
41946;SDS011;27638;42.184;24.848;2023-05-10T10:05:55;7.55;;;5.40;;
41946;SDS011;27638;42.184;24.848;2023-05-10T10:08:21;4.75;;;4.32;;
41946;SDS011;27638;42.184;24.848;2023-05-10T10:10:46;6.43;;;4.75;;
41946;SDS011;27638;42.184;24.848;2023-05-10T10:13:12;9.07;;;5.13;;
41946;SDS011;27638;42.184;24.848;2023-05-10T10:15:38;9.98;;;5.03;;
41946;SDS011;27638;42.184;24.848;2023-05-10T10:18:04;6.80;;;5.28;;
41946;SDS011;27638;42.184;24.848;2023-05-10T10:20:30;7.72;;;5.05;;
41946;SDS011;27638;42.184;24.848;2023-05-10T10:22:56;7.90;;;5.90;;
41946;SDS011;27638;42.184;24.848;2023-05-10T10:25:22;8.13;;;5.53;;
41946;SDS011;27638;42.184;24.848;2023-05-10T10:33:13;8.68;;;6.10;;
41946;SDS011;27638;42.184;24.848;2023-05-10T10:35:55;13.65;;;6.72;;
41946;SDS011;27638;42.184;24.848;2023-05-10T10:38:23;9.20;;;6.03;;
41946;SDS011;27638;42.184;24.848;2023-05-10T10:40:52;5.43;;;4.28;;
41946;SDS011;27638;42.184;24.848;2023-05-10T10:43:28;9.48;;;6.47;;
41946;SDS011;27638;42.184;24.848;2023-05-10T10:51:38;10.00;;;7.22;;
41946;SDS011;27638;42.184;24.848;2023-05-10T10:54:11;11.25;;;7.28;;
41946;SDS011;27638;42.184;24.848;2023-05-10T10:56:37;8.25;;;5.60;;
41946;SDS011;27638;42.184;24.848;2023-05-10T10:59:02;9.13;;;5.93;;
41946;SDS011;27638;42.184;24.848;2023-05-10T11:01:32;8.38;;;5.80;;
41946;SDS011;27638;42.184;24.848;2023-05-10T11:06:33;7.40;;;5.70;;
41946;SDS011;27638;42.184;24.848;2023-05-10T11:09:10;6.85;;;5.15;;
41946;SDS011;27638;42.184;24.848;2023-05-10T11:11:48;7.93;;;6.50;;
41946;SDS011;27638;42.184;24.848;2023-05-10T11:14:17;7.53;;;6.22;;
41946;SDS011;27638;42.184;24.848;2023-05-10T11:16:46;5.97;;;4.82;;
41946;SDS011;27638;42.184;24.848;2023-05-10T11:19:15;6.43;;;5.53;;
41946;SDS011;27638;42.184;24.848;2023-05-10T11:21:45;7.88;;;5.70;;
41946;SDS011;27638;42.184;24.848;2023-05-10T11:24:15;4.85;;;4.25;;
41946;SDS011;27638;42.184;24.848;2023-05-10T11:26:42;10.43;;;6.20;;
41946;SDS011;27638;42.184;24.848;2023-05-10T11:29:08;8.40;;;5.47;;
41946;SDS011;27638;42.184;24.848;2023-05-10T11:31:34;4.75;;;4.25;;
41946;SDS011;27638;42.184;24.848;2023-05-10T11:34:00;5.95;;;5.35;;
41946;SDS011;27638;42.184;24.848;2023-05-10T11:36:31;7.85;;;6.50;;
41946;SDS011;27638;42.184;24.848;2023-05-10T11:38:58;5.05;;;4.63;;
41946;SDS011;27638;42.184;24.848;2023-05-10T11:41:25;7.13;;;5.30;;
41946;SDS011;27638;42.184;24.848;2023-05-10T11:43:53;5.82;;;3.28;;
41946;SDS011;27638;42.184;24.848;2023-05-10T11:46:20;4.43;;;4.03;;
41946;SDS011;27638;42.184;24.848;2023-05-10T11:48:49;5.95;;;3.78;;
41946;SDS011;27638;42.184;24.848;2023-05-10T11:51:20;4.95;;;3.83;;
41946;SDS011;27638;42.184;24.848;2023-05-10T11:53:50;5.82;;;4.15;;
41946;SDS011;27638;42.184;24.848;2023-05-10T11:56:19;5.00;;;3.90;;
41946;SDS011;27638;42.184;24.848;2023-05-10T11:58:51;5.60;;;4.82;;
41946;SDS011;27638;42.184;24.848;2023-05-10T12:01:18;5.28;;;3.42;;
41946;SDS011;27638;42.184;24.848;2023-05-10T12:03:43;5.50;;;3.60;;
41946;SDS011;27638;42.184;24.848;2023-05-10T12:06:09;10.10;;;5.80;;
41946;SDS011;27638;42.184;24.848;2023-05-10T12:08:35;9.30;;;5.78;;
41946;SDS011;27638;42.184;24.848;2023-05-10T12:11:08;6.97;;;5.43;;
41946;SDS011;27638;42.184;24.848;2023-05-10T12:13:38;7.88;;;4.97;;
41946;SDS011;27638;42.184;24.848;2023-05-10T12:16:23;6.57;;;4.53;;
41946;SDS011;27638;42.184;24.848;2023-05-10T12:18:50;6.63;;;4.95;;
41946;SDS011;27638;42.184;24.848;2023-05-10T12:21:18;7.63;;;5.15;;
41946;SDS011;27638;42.184;24.848;2023-05-10T12:23:48;7.72;;;5.07;;
41946;SDS011;27638;42.184;24.848;2023-05-10T12:26:15;6.20;;;4.47;;
41946;SDS011;27638;42.184;24.848;2023-05-10T12:28:41;6.50;;;4.50;;
41946;SDS011;27638;42.184;24.848;2023-05-10T12:31:07;4.30;;;3.72;;
41946;SDS011;27638;42.184;24.848;2023-05-10T12:33:40;6.18;;;3.97;;
41946;SDS011;27638;42.184;24.848;2023-05-10T12:36:08;7.00;;;4.97;;
41946;SDS011;27638;42.184;24.848;2023-05-10T12:38:39;5.47;;;4.47;;
41946;SDS011;27638;42.184;24.848;2023-05-10T12:41:09;5.43;;;3.97;;
41946;SDS011;27638;42.184;24.848;2023-05-10T12:43:36;5.68;;;4.07;;
41946;SDS011;27638;42.184;24.848;2023-05-10T12:46:07;5.35;;;4.20;;
41946;SDS011;27638;42.184;24.848;2023-05-10T12:48:36;6.90;;;4.95;;
41946;SDS011;27638;42.184;24.848;2023-05-10T12:51:03;3.55;;;3.25;;
41946;SDS011;27638;42.184;24.848;2023-05-10T12:53:29;3.60;;;2.80;;
41946;SDS011;27638;42.184;24.848;2023-05-10T12:55:55;4.18;;;3.70;;
41946;SDS011;27638;42.184;24.848;2023-05-10T12:58:20;5.25;;;4.00;;
41946;SDS011;27638;42.184;24.848;2023-05-10T13:00:46;5.88;;;3.97;;
41946;SDS011;27638;42.184;24.848;2023-05-10T13:03:11;5.85;;;3.63;;
41946;SDS011;27638;42.184;24.848;2023-05-10T13:05:37;6.38;;;3.88;;
41946;SDS011;27638;42.184;24.848;2023-05-10T13:08:03;5.85;;;3.80;;
41946;SDS011;27638;42.184;24.848;2023-05-10T13:10:31;5.30;;;4.70;;
41946;SDS011;27638;42.184;24.848;2023-05-10T13:12:59;7.82;;;5.00;;
41946;SDS011;27638;42.184;24.848;2023-05-10T13:15:25;7.63;;;6.07;;
41946;SDS011;27638;42.184;24.848;2023-05-10T13:17:51;8.80;;;5.18;;
41946;SDS011;27638;42.184;24.848;2023-05-10T13:20:16;6.38;;;5.10;;
41946;SDS011;27638;42.184;24.848;2023-05-10T13:22:45;8.40;;;5.53;;
41946;SDS011;27638;42.184;24.848;2023-05-10T13:25:11;7.00;;;5.35;;
41946;SDS011;27638;42.184;24.848;2023-05-10T13:27:39;5.68;;;4.28;;
41946;SDS011;27638;42.184;24.848;2023-05-10T13:30:05;7.65;;;5.22;;
41946;SDS011;27638;42.184;24.848;2023-05-10T13:32:32;7.15;;;4.68;;
41946;SDS011;27638;42.184;24.848;2023-05-10T13:34:58;3.95;;;3.58;;
41946;SDS011;27638;42.184;24.848;2023-05-10T13:37:24;5.43;;;3.92;;
41946;SDS011;27638;42.184;24.848;2023-05-10T13:39:49;8.63;;;5.65;;
41946;SDS011;27638;42.184;24.848;2023-05-10T13:42:15;6.95;;;4.10;;
41946;SDS011;27638;42.184;24.848;2023-05-10T13:44:40;6.63;;;5.20;;
41946;SDS011;27638;42.184;24.848;2023-05-10T13:47:06;5.10;;;4.10;;
41946;SDS011;27638;42.184;24.848;2023-05-10T13:49:31;6.93;;;5.20;;
41946;SDS011;27638;42.184;24.848;2023-05-10T13:51:58;6.05;;;4.38;;
41946;SDS011;27638;42.184;24.848;2023-05-10T13:54:24;7.13;;;5.50;;
41946;SDS011;27638;42.184;24.848;2023-05-10T13:56:50;5.22;;;4.00;;
41946;SDS011;27638;42.184;24.848;2023-05-10T13:59:16;5.72;;;4.50;;
41946;SDS011;27638;42.184;24.848;2023-05-10T14:01:41;5.80;;;4.93;;
41946;SDS011;27638;42.184;24.848;2023-05-10T14:04:07;6.25;;;5.22;;
41946;SDS011;27638;42.184;24.848;2023-05-10T14:06:35;6.70;;;5.43;;
41946;SDS011;27638;42.184;24.848;2023-05-10T14:09:01;8.48;;;5.55;;
41946;SDS011;27638;42.184;24.848;2023-05-10T14:11:27;8.15;;;6.15;;
41946;SDS011;27638;42.184;24.848;2023-05-10T14:13:52;5.82;;;5.22;;
41946;SDS011;27638;42.184;24.848;2023-05-10T14:16:18;6.10;;;5.18;;
41946;SDS011;27638;42.184;24.848;2023-05-10T14:18:45;7.60;;;5.05;;
41946;SDS011;27638;42.184;24.848;2023-05-10T14:21:10;6.90;;;5.45;;
41946;SDS011;27638;42.184;24.848;2023-05-10T14:23:36;4.07;;;3.67;;
41946;SDS011;27638;42.184;24.848;2023-05-10T14:26:01;3.47;;;3.17;;
41946;SDS011;27638;42.184;24.848;2023-05-10T14:28:27;3.80;;;3.33;;
41946;SDS011;27638;42.184;24.848;2023-05-10T14:30:53;4.10;;;3.70;;
41946;SDS011;27638;42.184;24.848;2023-05-10T14:33:18;4.65;;;3.60;;
41946;SDS011;27638;42.184;24.848;2023-05-10T14:35:45;7.55;;;3.78;;
41946;SDS011;27638;42.184;24.848;2023-05-10T14:38:11;4.72;;;3.67;;
41946;SDS011;27638;42.184;24.848;2023-05-10T14:40:37;5.20;;;3.53;;
41946;SDS011;27638;42.184;24.848;2023-05-10T14:43:03;3.47;;;3.15;;
41946;SDS011;27638;42.184;24.848;2023-05-10T14:45:28;4.25;;;3.38;;
41946;SDS011;27638;42.184;24.848;2023-05-10T14:47:54;3.78;;;3.17;;
41946;SDS011;27638;42.184;24.848;2023-05-10T14:50:19;4.10;;;3.42;;
41946;SDS011;27638;42.184;24.848;2023-05-10T14:52:45;3.80;;;3.40;;
41946;SDS011;27638;42.184;24.848;2023-05-10T14:55:10;5.03;;;3.38;;
41946;SDS011;27638;42.184;24.848;2023-05-10T14:57:35;4.38;;;3.30;;
41946;SDS011;27638;42.184;24.848;2023-05-10T15:00:02;4.13;;;3.63;;